createdAt,value
2019-03-22T00:00:43.018Z,98.90
2019-03-22T00:03:12.706Z,101.82
2019-03-22T00:05:42.322Z,104.78
2019-03-22T00:08:12.066Z,106.58
2019-03-22T00:10:41.775Z,101.87
2019-03-22T00:13:11.458Z,99.32
2019-03-22T00:15:41.150Z,105.25
2019-03-22T00:18:10.793Z,107.72
2019-03-22T00:20:40.443Z,110.20
2019-03-22T00:23:10.055Z,106.70
2019-03-22T00:25:39.747Z,104.20
2019-03-22T00:28:09.433Z,108.90
2019-03-22T00:30:39.067Z,104.35
2019-03-22T00:33:08.775Z,109.72
2019-03-22T00:35:38.388Z,105.47
2019-03-22T00:38:08.003Z,107.55
2019-03-22T00:40:37.726Z,109.85
2019-03-22T00:43:07.341Z,112.90
2019-03-22T00:45:36.945Z,107.20
2019-03-22T00:48:06.658Z,106.75
2019-03-22T00:50:36.266Z,120.65
2019-03-22T00:53:05.872Z,105.00
2019-03-22T00:55:35.497Z,112.03
2019-03-22T00:58:05.168Z,111.37
2019-03-22T01:00:34.887Z,115.88
2019-03-22T01:03:04.490Z,110.83
2019-03-22T01:05:34.207Z,118.90
2019-03-22T01:08:03.828Z,121.85
2019-03-22T01:10:33.516Z,117.65
2019-03-22T01:13:03.226Z,116.28
2019-03-22T01:15:32.912Z,122.02
2019-03-22T01:18:02.647Z,123.80
2019-03-22T01:20:32.271Z,124.87
2019-03-22T01:23:02.959Z,120.60
2019-03-22T01:25:32.579Z,126.72
2019-03-22T01:28:02.225Z,128.57
2019-03-22T01:30:31.831Z,129.35
2019-03-22T01:33:02.918Z,123.05
2019-03-22T01:35:32.509Z,128.85
2019-03-22T01:38:03.501Z,125.72
2019-03-22T01:40:33.450Z,128.18
2019-03-22T01:43:03.542Z,129.55
2019-03-22T01:45:33.209Z,132.93
2019-03-22T01:48:02.915Z,125.97
2019-03-22T01:50:32.525Z,127.22
2019-03-22T01:53:02.294Z,125.70
2019-03-22T01:55:31.992Z,134.95
2019-03-22T01:58:02.384Z,123.42
2019-03-22T02:00:32.062Z,129.60
2019-03-22T02:03:04.383Z,129.57
2019-03-22T02:05:33.991Z,125.02
2019-03-22T02:08:03.608Z,121.60
2019-03-22T02:10:33.242Z,125.20
2019-03-22T02:13:02.862Z,114.10
2019-03-22T02:15:32.496Z,125.05
2019-03-22T02:18:02.105Z,129.20
2019-03-22T02:20:31.814Z,121.37
2019-03-22T02:23:01.475Z,135.12
2019-03-22T02:25:31.083Z,122.87
2019-03-22T02:28:04.333Z,127.53
2019-03-22T02:30:31.938Z,121.28
2019-03-22T02:33:02.219Z,118.93
2019-03-22T02:35:31.843Z,123.53
2019-03-22T02:38:01.470Z,121.90
2019-03-22T02:40:31.418Z,130.45
2019-03-22T02:43:01.035Z,131.47
2019-03-22T02:45:30.644Z,131.55
2019-03-22T02:48:00.232Z,129.32
2019-03-22T02:50:29.856Z,120.90
2019-03-22T02:52:59.508Z,121.05
2019-03-22T02:55:29.108Z,122.33
2019-03-22T02:57:58.749Z,120.33
2019-03-22T03:00:28.432Z,120.22
2019-03-22T03:02:58.044Z,120.50
2019-03-22T03:05:27.679Z,134.65
2019-03-22T03:07:57.301Z,131.52
2019-03-22T03:10:26.922Z,138.43
2019-03-22T03:12:56.522Z,145.77
2019-03-22T03:15:26.162Z,142.35
2019-03-22T03:17:55.812Z,138.65
2019-03-22T03:20:25.420Z,148.20
2019-03-22T03:22:55.055Z,136.82
2019-03-22T03:25:24.667Z,138.43
2019-03-22T03:27:55.396Z,136.90
2019-03-22T03:30:24.990Z,129.50
2019-03-22T03:32:54.605Z,128.38
2019-03-22T03:35:24.289Z,138.80
2019-03-22T03:37:53.925Z,143.35
2019-03-22T03:40:24.661Z,142.30
2019-03-22T03:42:54.344Z,140.03
2019-03-22T03:45:34.785Z,144.93
2019-03-22T03:48:07.480Z,128.72
2019-03-22T03:50:37.542Z,121.87
2019-03-22T03:53:07.279Z,113.10
2019-03-22T03:55:36.972Z,121.40
2019-03-22T03:58:06.662Z,116.25
2019-03-22T04:00:36.300Z,119.33
2019-03-22T04:03:05.999Z,118.02
2019-03-22T04:05:35.610Z,110.10
2019-03-22T04:08:05.550Z,126.33
2019-03-22T04:10:35.283Z,124.58
2019-03-22T04:13:04.989Z,118.28
2019-03-22T04:15:34.673Z,131.37
2019-03-22T04:18:04.416Z,140.03
2019-03-22T04:20:34.036Z,126.35
2019-03-22T04:23:03.665Z,123.30
2019-03-22T04:25:33.270Z,130.32
2019-03-22T04:28:02.888Z,131.85
2019-03-22T04:30:32.506Z,138.60
2019-03-22T04:33:02.151Z,129.27
2019-03-22T04:35:31.745Z,123.07
2019-03-22T04:38:01.404Z,114.03
2019-03-22T04:40:33.972Z,120.57
2019-03-22T04:43:04.366Z,140.80
2019-03-22T04:45:36.721Z,153.65
2019-03-22T04:48:12.486Z,155.53
2019-03-22T04:50:43.983Z,178.02
2019-03-22T04:53:16.625Z,168.20
2019-03-22T04:55:48.279Z,173.78
2019-03-22T04:58:19.490Z,165.95
2019-03-22T05:00:49.631Z,230.10
2019-03-22T05:03:20.437Z,174.25
2019-03-22T05:05:52.095Z,182.32
2019-03-22T05:08:24.485Z,189.77
2019-03-22T05:10:55.874Z,223.50
2019-03-22T05:13:27.271Z,224.67
2019-03-22T05:15:57.815Z,369.13
2019-03-22T05:18:29.962Z,357.57
2019-03-22T05:20:59.953Z,332.10
2019-03-22T05:23:30.592Z,330.90
2019-03-22T05:26:06.054Z,249.42
2019-03-22T05:28:36.623Z,314.80
2019-03-22T05:31:26.069Z,266.45
2019-03-22T05:33:55.771Z,246.40
2019-03-22T05:36:25.510Z,170.85
2019-03-22T05:38:55.172Z,292.85
2019-03-22T05:41:24.789Z,238.47
2019-03-22T05:43:54.427Z,193.55
2019-03-22T05:46:24.059Z,171.55
2019-03-22T05:48:53.700Z,225.20
2019-03-22T05:51:23.380Z,234.90
2019-03-22T05:53:52.995Z,235.68
2019-03-22T05:56:22.629Z,202.57
2019-03-22T05:58:52.238Z,214.80
2019-03-22T06:01:21.886Z,238.87
2019-03-22T06:03:51.580Z,203.60
2019-03-22T06:06:21.254Z,142.47
2019-03-22T06:08:50.844Z,141.60
2019-03-22T06:11:20.735Z,134.18
2019-03-22T06:13:50.435Z,131.87
2019-03-22T06:16:20.047Z,152.35
2019-03-22T06:18:50.583Z,118.33
2019-03-22T06:21:20.540Z,129.47
2019-03-22T06:23:50.154Z,103.35
2019-03-22T06:26:19.913Z,109.63
2019-03-22T06:28:49.523Z,103.72
2019-03-22T06:31:20.800Z,102.12
2019-03-22T06:33:50.577Z,112.12
2019-03-22T06:36:20.272Z,109.00
2019-03-22T06:38:49.902Z,98.15
2019-03-22T06:41:19.506Z,94.83
2019-03-22T06:43:49.202Z,91.53
2019-03-22T06:46:18.811Z,98.25
2019-03-22T06:48:49.199Z,91.78
2019-03-22T06:51:18.892Z,82.40
2019-03-22T06:53:48.499Z,81.45
2019-03-22T06:56:18.092Z,83.17
2019-03-22T06:58:47.814Z,77.10
2019-03-22T07:01:18.211Z,80.92
2019-03-22T07:03:47.848Z,81.25
2019-03-22T07:06:17.443Z,81.55
2019-03-22T07:08:47.044Z,75.97
2019-03-22T07:11:16.677Z,74.92
2019-03-22T07:13:46.326Z,74.62
2019-03-22T07:16:15.919Z,78.02
2019-03-22T07:18:45.551Z,83.03
2019-03-22T07:21:15.331Z,80.28
2019-03-22T07:23:44.956Z,76.25
2019-03-22T07:26:14.557Z,81.50
2019-03-22T07:28:44.242Z,68.80
2019-03-22T07:31:13.913Z,82.33
2019-03-22T07:33:43.514Z,81.67
2019-03-22T07:36:13.129Z,83.92
2019-03-22T07:38:42.880Z,79.42
2019-03-22T07:41:12.536Z,79.58
2019-03-22T07:43:42.237Z,76.92
2019-03-22T07:46:11.848Z,80.17
2019-03-22T07:48:41.435Z,81.37
2019-03-22T07:51:11.116Z,74.37
2019-03-22T07:53:40.769Z,74.30
2019-03-22T07:56:10.360Z,70.22
2019-03-22T07:58:40.052Z,74.75
2019-03-22T08:01:09.812Z,66.55
2019-03-22T08:03:39.496Z,66.28
2019-03-22T08:06:09.413Z,72.42
2019-03-22T08:08:39.044Z,71.50
2019-03-22T08:11:08.665Z,62.15
2019-03-22T08:13:38.294Z,63.60
2019-03-22T08:16:07.879Z,55.70
2019-03-22T08:18:37.790Z,59.25
2019-03-22T08:21:07.421Z,56.95
2019-03-22T08:23:37.059Z,58.73
2019-03-22T08:26:06.652Z,53.42
2019-03-22T08:28:36.394Z,52.62
2019-03-22T08:31:06.360Z,53.55
2019-03-22T08:33:36.054Z,58.02
2019-03-22T08:36:07.222Z,52.62
2019-03-22T08:38:36.817Z,49.65
2019-03-22T08:41:06.513Z,48.25
2019-03-22T08:43:36.160Z,42.13
2019-03-22T08:46:05.803Z,48.78
2019-03-22T08:48:35.489Z,39.85
2019-03-22T08:51:05.200Z,41.53
2019-03-22T08:53:34.891Z,38.88
2019-03-22T08:56:04.608Z,39.30
2019-03-22T08:58:34.196Z,40.67
2019-03-22T09:01:03.966Z,33.23
2019-03-22T09:03:33.667Z,32.70
2019-03-22T09:06:03.451Z,24.18
2019-03-22T09:08:33.056Z,25.65
2019-03-22T09:11:06.674Z,20.48
2019-03-22T09:13:36.375Z,18.90
2019-03-22T09:16:06.103Z,20.65
2019-03-22T09:18:35.915Z,22.85
2019-03-22T09:21:05.513Z,21.48
2019-03-22T09:23:35.260Z,19.98
2019-03-22T09:26:04.949Z,20.85
2019-03-22T09:28:34.570Z,21.55
2019-03-22T09:31:10.215Z,19.42
2019-03-22T09:33:35.490Z,21.25
2019-03-22T09:36:05.862Z,23.18
2019-03-22T09:38:35.494Z,20.62
2019-03-22T09:41:05.162Z,19.90
2019-03-22T09:43:34.791Z,17.70
2019-03-22T09:46:04.403Z,22.17
2019-03-22T09:48:34.218Z,18.90
2019-03-22T09:51:04.602Z,33.20
2019-03-22T09:53:34.273Z,19.20
2019-03-22T09:56:04.085Z,17.50
2019-03-22T09:58:33.691Z,19.62
2019-03-22T10:01:04.991Z,21.97
2019-03-22T10:03:35.231Z,17.98
2019-03-22T10:06:04.937Z,25.40
2019-03-22T10:08:34.585Z,18.27
2019-03-22T10:11:04.356Z,18.98
2019-03-22T10:13:34.003Z,17.50
2019-03-22T10:16:03.686Z,19.37
2019-03-22T10:18:33.391Z,18.07
2019-03-22T10:21:04.486Z,16.55
2019-03-22T10:23:34.184Z,20.45
2019-03-22T10:26:04.220Z,18.17
2019-03-22T10:28:33.996Z,19.23
2019-03-22T10:31:03.648Z,17.15
2019-03-22T10:33:33.317Z,21.65
2019-03-22T10:36:03.080Z,16.32
2019-03-22T10:38:32.739Z,15.43
2019-03-22T10:41:02.426Z,17.12
2019-03-22T10:43:33.550Z,18.85
2019-03-22T10:46:03.148Z,19.80
2019-03-22T10:48:32.821Z,15.45
2019-03-22T10:51:02.429Z,14.93
2019-03-22T10:53:32.026Z,14.40
2019-03-22T10:56:01.771Z,16.48
2019-03-22T10:58:31.398Z,17.35
2019-03-22T11:01:01.027Z,15.20
2019-03-22T11:03:30.700Z,14.75
2019-03-22T11:06:00.348Z,19.15
2019-03-22T11:08:29.988Z,15.20
2019-03-22T11:10:59.595Z,16.70
2019-03-22T11:13:29.245Z,15.95
2019-03-22T11:15:58.853Z,12.43
2019-03-22T11:18:37.050Z,12.40
2019-03-22T11:21:05.281Z,13.60
2019-03-22T11:23:31.014Z,11.15
2019-03-22T11:26:04.348Z,9.63
2019-03-22T11:28:31.912Z,9.40
2019-03-22T11:31:05.048Z,10.35
2019-03-22T11:33:32.849Z,12.93
2019-03-22T11:36:02.450Z,14.43
2019-03-22T11:38:32.081Z,15.13
2019-03-22T11:41:02.516Z,14.43
2019-03-22T11:43:32.139Z,10.95
2019-03-22T11:46:01.736Z,12.88
2019-03-22T11:48:31.558Z,11.75
2019-03-22T11:51:01.542Z,12.85
2019-03-22T11:53:31.109Z,15.20
2019-03-22T11:56:00.706Z,14.83
2019-03-22T11:58:30.331Z,14.50
2019-03-22T12:01:00.499Z,15.32
2019-03-22T12:03:30.134Z,13.40
2019-03-22T12:05:59.764Z,12.95
2019-03-22T12:08:29.374Z,15.18
2019-03-22T12:10:59.001Z,12.47
2019-03-22T12:13:28.615Z,14.58
2019-03-22T12:15:58.446Z,18.17
2019-03-22T12:18:28.292Z,17.07
2019-03-22T12:20:58.137Z,14.93
2019-03-22T12:23:27.719Z,18.27
2019-03-22T12:25:57.322Z,17.87
2019-03-22T12:28:26.916Z,17.73
2019-03-22T12:30:56.548Z,14.83
2019-03-22T12:33:26.167Z,15.50
2019-03-22T12:35:55.854Z,15.53
2019-03-22T12:38:25.485Z,15.45
2019-03-22T12:40:55.109Z,14.83
2019-03-22T12:43:24.680Z,15.35
2019-03-22T12:45:54.304Z,16.97
2019-03-22T12:48:25.962Z,16.15
2019-03-22T12:50:55.591Z,17.12
2019-03-22T12:53:25.186Z,13.55
2019-03-22T12:55:54.994Z,15.75
2019-03-22T12:58:24.567Z,17.92
2019-03-22T13:00:54.182Z,15.03
2019-03-22T13:03:24.458Z,13.00
2019-03-22T13:05:54.282Z,14.83
2019-03-22T13:08:23.902Z,17.00
2019-03-22T13:10:53.501Z,15.78
2019-03-22T13:13:23.167Z,12.18
2019-03-22T13:15:52.863Z,12.43
2019-03-22T13:18:22.459Z,14.83
2019-03-22T13:20:52.099Z,14.85
2019-03-22T13:23:21.757Z,16.42
2019-03-22T13:25:51.367Z,14.55
2019-03-22T13:28:20.960Z,14.43
2019-03-22T13:30:50.586Z,14.80
2019-03-22T13:33:20.192Z,13.58
2019-03-22T13:35:49.820Z,16.23
2019-03-22T13:38:19.507Z,14.53
2019-03-22T13:40:49.179Z,14.73
2019-03-22T13:43:18.776Z,14.93
2019-03-22T13:45:48.412Z,13.35
2019-03-22T13:48:18.011Z,15.05
2019-03-22T13:50:47.701Z,16.23
2019-03-22T13:53:17.311Z,12.28
2019-03-22T13:55:46.917Z,10.72
2019-03-22T13:58:16.635Z,14.50
2019-03-22T14:00:46.247Z,11.48
2019-03-22T14:03:15.941Z,11.75
2019-03-22T14:05:45.671Z,19.37
2019-03-22T14:08:15.414Z,11.45
2019-03-22T14:10:45.082Z,10.80
2019-03-22T14:13:14.687Z,11.88
2019-03-22T14:15:44.379Z,13.43
2019-03-22T14:18:14.007Z,12.63
2019-03-22T14:20:43.617Z,10.95
2019-03-22T14:23:13.349Z,12.30
2019-03-22T14:25:43.008Z,12.58
2019-03-22T14:28:12.638Z,12.90
2019-03-22T14:30:42.347Z,12.68
2019-03-22T14:33:13.520Z,11.85
2019-03-22T14:35:43.210Z,13.45
2019-03-22T14:38:12.818Z,12.33
2019-03-22T14:40:42.435Z,16.67
2019-03-22T14:43:12.187Z,15.18
2019-03-22T14:45:42.353Z,14.45
2019-03-22T14:48:11.982Z,14.15
2019-03-22T14:50:41.618Z,15.20
2019-03-22T14:53:11.286Z,15.85
2019-03-22T14:55:40.910Z,15.68
2019-03-22T14:58:10.538Z,18.62
2019-03-22T15:00:40.202Z,17.05
2019-03-22T15:03:25.270Z,15.10
2019-03-22T15:05:56.046Z,17.17
2019-03-22T15:08:25.929Z,17.52
2019-03-22T15:10:55.683Z,15.00
2019-03-22T15:13:28.788Z,14.38
2019-03-22T15:16:00.038Z,17.42
2019-03-22T15:18:34.458Z,18.62
2019-03-22T15:21:22.059Z,16.95
2019-03-22T15:24:11.358Z,17.05
2019-03-22T15:26:51.722Z,18.25
2019-03-22T15:29:25.700Z,19.25
2019-03-22T15:32:13.235Z,15.83
2019-03-22T15:34:44.476Z,16.23
2019-03-22T15:37:24.974Z,18.25
2019-03-22T15:40:00.626Z,12.70
2019-03-22T15:42:30.181Z,14.23
2019-03-22T15:44:59.837Z,16.48
2019-03-22T15:47:29.543Z,13.48
2019-03-22T15:49:59.159Z,12.73
2019-03-22T15:52:28.913Z,15.78
2019-03-22T15:54:58.491Z,17.00
2019-03-22T15:57:30.389Z,12.65
2019-03-22T16:00:00.335Z,16.70
2019-03-22T16:02:31.527Z,16.70
2019-03-22T16:05:04.811Z,16.52
2019-03-22T16:10:11.105Z,20.05
2019-03-22T16:12:41.599Z,21.35
2019-03-22T16:15:13.725Z,22.37
2019-03-22T16:17:44.025Z,19.48
2019-03-22T16:20:15.724Z,19.00
2019-03-22T16:22:45.362Z,22.37
2019-03-22T16:25:15.525Z,18.98
2019-03-22T16:27:45.242Z,15.08
2019-03-22T16:30:20.591Z,19.67
2019-03-22T16:32:50.206Z,15.93
2019-03-22T16:35:19.851Z,16.45
2019-03-22T16:37:49.470Z,14.90
2019-03-22T16:40:24.098Z,15.93
2019-03-22T16:42:50.470Z,20.00
2019-03-22T16:45:34.588Z,16.00
2019-03-22T16:48:04.793Z,18.02
2019-03-22T16:50:34.516Z,17.37
2019-03-22T16:53:04.463Z,18.20
2019-03-22T16:55:34.150Z,25.00
2019-03-22T16:58:05.582Z,17.82
2019-03-22T17:00:35.468Z,20.68
2019-03-22T17:03:06.965Z,17.50
2019-03-22T17:05:36.678Z,20.23
2019-03-22T17:08:06.568Z,17.65
2019-03-22T17:10:36.272Z,17.25
2019-03-22T17:13:06.137Z,19.87
2019-03-22T17:15:35.810Z,20.75
2019-03-22T17:18:05.946Z,20.72
2019-03-22T17:20:35.702Z,19.65
2019-03-22T17:23:05.689Z,19.45
2019-03-22T17:25:35.375Z,21.00
2019-03-22T17:28:05.489Z,20.55
2019-03-22T17:30:35.226Z,18.42
2019-03-22T17:33:05.035Z,23.18
2019-03-22T17:35:34.791Z,21.15
2019-03-22T17:38:04.852Z,16.95
2019-03-22T17:40:34.496Z,23.22
2019-03-22T17:43:04.957Z,23.15
2019-03-22T17:45:34.592Z,21.12
2019-03-22T17:48:04.284Z,20.15
2019-03-22T17:50:34.021Z,19.73
2019-03-22T17:53:03.690Z,25.32
2019-03-22T17:55:33.450Z,22.48
2019-03-22T17:58:03.587Z,29.80
2019-03-22T18:00:33.431Z,26.15
2019-03-22T18:03:03.055Z,22.00
2019-03-22T18:05:32.896Z,22.37
2019-03-22T18:08:02.918Z,26.42
2019-03-22T18:10:32.616Z,28.85
2019-03-22T18:13:04.184Z,39.00
2019-03-22T18:15:33.820Z,38.23
2019-03-22T18:18:04.312Z,40.58
2019-03-22T18:20:34.003Z,37.10
2019-03-22T18:23:04.167Z,42.30
2019-03-22T18:25:34.517Z,40.98
2019-03-22T18:28:04.260Z,49.85
2019-03-22T18:30:34.001Z,47.93
2019-03-22T18:33:04.339Z,41.75
2019-03-22T18:35:34.122Z,49.18
2019-03-22T18:38:03.807Z,41.02
2019-03-22T18:40:33.391Z,50.23
2019-03-22T18:43:03.069Z,44.98
2019-03-22T18:45:32.841Z,44.08
2019-03-22T18:48:02.373Z,43.23
2019-03-22T18:50:32.049Z,46.88
2019-03-22T18:53:01.823Z,48.08
2019-03-22T18:55:31.418Z,45.85
2019-03-22T18:58:01.079Z,54.58
2019-03-22T19:00:30.746Z,51.65
2019-03-22T19:03:00.546Z,47.53
2019-03-22T19:05:30.282Z,49.90
2019-03-22T19:07:59.888Z,48.20
2019-03-22T19:10:29.628Z,50.50
2019-03-22T19:12:59.282Z,48.30
2019-03-22T19:15:28.892Z,47.95
2019-03-22T19:17:58.564Z,44.53
2019-03-22T19:20:28.193Z,51.88
2019-03-22T19:22:57.915Z,54.85
2019-03-22T19:25:27.556Z,53.10
2019-03-22T19:27:57.385Z,44.85
2019-03-22T19:30:26.979Z,47.08
2019-03-22T19:32:56.627Z,46.45
2019-03-22T19:35:26.359Z,46.77
2019-03-22T19:37:55.964Z,56.70
2019-03-22T19:40:26.238Z,73.97
2019-03-22T19:42:55.896Z,73.15
2019-03-22T19:45:25.563Z,82.95
2019-03-22T19:47:55.283Z,92.00
2019-03-22T19:50:24.888Z,93.92
2019-03-22T19:52:54.523Z,89.05
2019-03-22T19:55:24.141Z,95.28
2019-03-22T19:57:53.885Z,96.53
2019-03-22T20:00:23.522Z,97.42
2019-03-22T20:02:53.231Z,96.20
2019-03-22T20:05:30.550Z,92.00
2019-03-22T20:08:01.602Z,100.78
2019-03-22T20:10:31.300Z,96.65
2019-03-22T20:13:03.552Z,97.20
2019-03-22T20:15:33.242Z,104.92
2019-03-22T20:18:02.949Z,102.53
2019-03-22T20:20:32.563Z,108.63
2019-03-22T20:23:02.201Z,102.15
2019-03-22T20:25:31.875Z,108.22
2019-03-22T20:28:01.549Z,110.10
2019-03-22T20:30:31.443Z,113.42
2019-03-22T20:33:01.061Z,116.28
2019-03-22T20:35:30.763Z,119.08
2019-03-22T20:38:00.391Z,110.72
2019-03-22T20:40:30.105Z,116.15
2019-03-22T20:42:59.837Z,112.12
2019-03-22T20:45:29.428Z,120.13
2019-03-22T20:47:59.116Z,126.70
2019-03-22T20:50:35.671Z,124.62
2019-03-22T20:52:59.990Z,123.22
2019-03-22T20:55:29.606Z,132.43
2019-03-22T20:57:59.233Z,122.95
2019-03-22T21:00:28.878Z,135.43
2019-03-22T21:02:58.499Z,135.37
2019-03-22T21:05:28.114Z,141.40
2019-03-22T21:07:57.747Z,144.70
2019-03-22T21:10:27.362Z,146.40
2019-03-22T21:12:57.547Z,155.55
2019-03-22T21:15:27.179Z,144.95
2019-03-22T21:17:58.002Z,149.25
2019-03-22T21:20:27.641Z,170.90
2019-03-22T21:22:57.252Z,171.35
2019-03-22T21:25:26.899Z,160.07
2019-03-22T21:27:56.515Z,179.45
2019-03-22T21:30:26.135Z,172.70
2019-03-22T21:32:55.774Z,168.17
2019-03-22T21:35:25.415Z,173.00
2019-03-22T21:37:55.031Z,166.80
2019-03-22T21:40:24.647Z,175.35
2019-03-22T21:42:54.347Z,174.68
2019-03-22T21:45:24.031Z,174.57
2019-03-22T21:47:53.650Z,163.80
2019-03-22T21:50:23.302Z,177.32
2019-03-22T21:52:52.922Z,174.27
2019-03-22T21:55:22.706Z,186.62
2019-03-22T21:57:52.309Z,173.57
2019-03-22T22:00:22.011Z,177.90
2019-03-22T22:02:51.694Z,180.65
2019-03-22T22:05:21.343Z,174.85
2019-03-22T22:07:50.945Z,178.97
2019-03-22T22:10:20.600Z,176.68
2019-03-22T22:12:50.208Z,173.35
2019-03-22T22:15:19.949Z,160.57
2019-03-22T22:17:49.569Z,173.40
2019-03-22T22:20:28.359Z,178.80
2019-03-22T22:22:50.439Z,194.35
2019-03-22T22:25:20.120Z,184.63
2019-03-22T22:27:49.957Z,201.47
2019-03-22T22:30:22.662Z,201.25
2019-03-22T22:32:52.330Z,233.93
2019-03-22T22:35:21.897Z,228.55
2019-03-22T22:37:51.539Z,218.50
2019-03-22T22:40:21.242Z,248.97
2019-03-22T22:42:50.879Z,235.80
2019-03-22T22:45:20.476Z,244.85
2019-03-22T22:48:00.135Z,240.65
2019-03-22T22:50:32.291Z,226.92
2019-03-22T22:53:04.350Z,258.52
2019-03-22T22:55:33.971Z,269.77
2019-03-22T22:58:04.365Z,315.52
2019-03-22T23:00:34.148Z,305.52
2019-03-22T23:03:03.767Z,280.45
2019-03-22T23:05:33.467Z,274.55
2019-03-22T23:08:03.556Z,292.23
2019-03-22T23:10:33.394Z,286.90
2019-03-22T23:13:04.188Z,291.38
2019-03-22T23:15:34.876Z,307.20
2019-03-22T23:18:04.508Z,288.90
2019-03-22T23:20:34.133Z,316.38
2019-03-22T23:23:06.795Z,306.63
2019-03-22T23:25:36.451Z,334.70
2019-03-22T23:28:06.214Z,360.93
2019-03-22T23:30:35.895Z,347.17
2019-03-22T23:33:05.587Z,335.20
2019-03-22T23:35:35.215Z,323.48
2019-03-22T23:38:04.840Z,307.30
2019-03-22T23:40:34.455Z,327.20
2019-03-22T23:43:04.203Z,324.12
2019-03-22T23:45:33.805Z,306.07
2019-03-22T23:48:03.428Z,329.15
2019-03-22T23:50:33.031Z,291.52
2019-03-22T23:53:02.675Z,289.50
2019-03-22T23:55:32.272Z,281.15
2019-03-22T23:58:03.995Z,290.92
